Decoded Metar for VABB (BOMBAY in INDIA) (IATA:BOM) | Meteo·Mobile Aviation Weather
aviador You're here:

VABB Decoded Metar

BOMBAY in INDIA
Report Time2018-11-19 04:30:00
UTC Time2018-11-19 04:44:03
Flight Rules lifr LIFR
Wind100° at 03 kt
W.Decomp.*RWY 09: 2.9 kt HW 0.6 kt RCW
RWY 14: 2.3 kt HW 1.9 kt LCW
W.Rank100° ranks 19
Current wind is below 100° avg. (4.7)
Visibility1500 m
Phenomena:Smoke
Clouds:Few 100 Hf
Expected CloudBase > 4,000 ft AGL from Temp-Dew spread
CeilingNone
Temp30°C (ISA +15)
Dew Point20°C (55% RH)
Heat Index31.9°C
QNH1014 hPa
Density Alt2,028 ft
Elevation26 ft
Report Wrong Elevation
Raw Report
VABB 190430Z 10003KT 1500 FU FEW100 30/20 Q1014 BECMG 2000 FU=

Extra information for VABB:More info

Metar Taf Metar & Taf Last 4 Metars F.Rules Stats Wind Profile Meteogram Temp Stats Airport Information Weather charts Add Link Nearby VenuesMetar ALERT Operation Metar Decoded Social comments